sensor_id;sensor_type;location;lat;lon;timestamp;pressure;altitude;pressure_sealevel;temperature;humidity
38303;BME280;24103;42.454;27.400;2023-11-22T12:35:49;100328.44;;;14.42;100.00
38303;BME280;24103;42.454;27.400;2023-11-22T12:38:15;100321.16;;;14.44;100.00
38303;BME280;24103;42.454;27.400;2023-11-22T12:40:45;100328.78;;;14.49;100.00
38303;BME280;24103;42.454;27.400;2023-11-22T12:43:14;100332.50;;;14.35;100.00
38303;BME280;24103;42.454;27.400;2023-11-22T12:45:40;100340.63;;;13.98;100.00
38303;BME280;24103;42.454;27.400;2023-11-22T12:48:36;100340.59;;;13.62;100.00
38303;BME280;24103;42.454;27.400;2023-11-22T12:51:01;100348.50;;;13.51;100.00
38303;BME280;24103;42.454;27.400;2023-11-22T12:53:27;100350.91;;;13.43;100.00
38303;BME280;24103;42.454;27.400;2023-11-22T12:55:54;100345.75;;;13.16;100.00
38303;BME280;24103;42.454;27.400;2023-11-22T12:58:24;100354.47;;;13.05;100.00
38303;BME280;24103;42.454;27.400;2023-11-22T13:00:52;100348.44;;;12.90;100.00
38303;BME280;24103;42.454;27.400;2023-11-22T13:03:26;100353.44;;;12.82;100.00
38303;BME280;24103;42.454;27.400;2023-11-22T13:05:52;100356.09;;;12.82;100.00
38303;BME280;24103;42.454;27.400;2023-11-22T13:08:18;100355.91;;;12.59;100.00
38303;BME280;24103;42.454;27.400;2023-11-22T13:10:49;100353.78;;;12.64;100.00
38303;BME280;24103;42.454;27.400;2023-11-22T13:13:23;100363.56;;;12.64;100.00
38303;BME280;24103;42.454;27.400;2023-11-22T13:15:49;100361.53;;;12.54;100.00
38303;BME280;24103;42.454;27.400;2023-11-22T13:18:16;100354.72;;;12.50;100.00
38303;BME280;24103;42.454;27.400;2023-11-22T13:20:42;100366.91;;;12.40;100.00
38303;BME280;24103;42.454;27.400;2023-11-22T13:23:08;100367.25;;;12.23;100.00
38303;BME280;24103;42.454;27.400;2023-11-22T13:25:34;100371.09;;;12.04;100.00
38303;BME280;24103;42.454;27.400;2023-11-22T13:27:59;100369.75;;;14.57;100.00
38303;BME280;24103;42.454;27.400;2023-11-22T13:30:25;100369.78;;;15.25;100.00
38303;BME280;24103;42.454;27.400;2023-11-22T13:32:55;100363.88;;;15.77;100.00
38303;BME280;24103;42.454;27.400;2023-11-22T13:35:28;100380.47;;;14.91;100.00
38303;BME280;24103;42.454;27.400;2023-11-22T13:37:58;100391.72;;;14.01;100.00
38303;BME280;24103;42.454;27.400;2023-11-22T13:40:25;100385.66;;;12.88;100.00
38303;BME280;24103;42.454;27.400;2023-11-22T13:42:57;100367.16;;;14.91;100.00
38303;BME280;24103;42.454;27.400;2023-11-22T13:45:25;100356.81;;;15.43;100.00
38303;BME280;24103;42.454;27.400;2023-11-22T13:47:54;100396.16;;;13.16;100.00
38303;BME280;24103;42.454;27.400;2023-11-22T13:50:28;100380.41;;;12.76;100.00
38303;BME280;24103;42.454;27.400;2023-11-22T13:52:55;100398.63;;;12.93;100.00
38303;BME280;24103;42.454;27.400;2023-11-22T13:55:21;100389.84;;;14.62;100.00
38303;BME280;24103;42.454;27.400;2023-11-22T13:57:55;100389.75;;;15.31;100.00
38303;BME280;24103;42.454;27.400;2023-11-22T14:00:23;100395.94;;;15.09;100.00
38303;BME280;24103;42.454;27.400;2023-11-22T14:02:56;100392.84;;;15.47;100.00
38303;BME280;24103;42.454;27.400;2023-11-22T14:07:47;100389.66;;;14.99;100.00
38303;BME280;24103;42.454;27.400;2023-11-22T14:10:14;100392.38;;;14.63;100.00
38303;BME280;24103;42.454;27.400;2023-11-22T14:12:42;100397.75;;;14.86;100.00
38303;BME280;24103;42.454;27.400;2023-11-22T14:15:09;100415.25;;;14.66;100.00
38303;BME280;24103;42.454;27.400;2023-11-22T14:17:35;100415.91;;;14.10;100.00
38303;BME280;24103;42.454;27.400;2023-11-22T14:20:03;100412.56;;;14.19;100.00
38303;BME280;24103;42.454;27.400;2023-11-22T14:22:30;100413.78;;;14.62;100.00
38303;BME280;24103;42.454;27.400;2023-11-22T14:24:57;100416.66;;;14.59;100.00
38303;BME280;24103;42.454;27.400;2023-11-22T14:27:23;100415.91;;;14.56;100.00
38303;BME280;24103;42.454;27.400;2023-11-22T14:29:48;100417.41;;;14.25;100.00
38303;BME280;24103;42.454;27.400;2023-11-22T14:32:16;100412.47;;;14.32;100.00
38303;BME280;24103;42.454;27.400;2023-11-22T14:34:42;100402.34;;;12.78;100.00
38303;BME280;24103;42.454;27.400;2023-11-22T14:37:11;100393.97;;;12.58;100.00
38303;BME280;24103;42.454;27.400;2023-11-22T14:39:36;100390.47;;;13.46;100.00
38303;BME280;24103;42.454;27.400;2023-11-22T14:42:02;100399.25;;;12.32;100.00
38303;BME280;24103;42.454;27.400;2023-11-22T14:44:31;100399.19;;;12.07;100.00
38303;BME280;24103;42.454;27.400;2023-11-22T14:46:56;100390.19;;;13.38;100.00
38303;BME280;24103;42.454;27.400;2023-11-22T14:49:23;100398.38;;;13.35;100.00
38303;BME280;24103;42.454;27.400;2023-11-22T14:51:49;100409.69;;;13.50;100.00
38303;BME280;24103;42.454;27.400;2023-11-22T14:54:14;100409.72;;;12.21;100.00
38303;BME280;24103;42.454;27.400;2023-11-22T14:56:40;100418.97;;;12.41;100.00
38303;BME280;24103;42.454;27.400;2023-11-22T14:59:06;100418.41;;;13.39;100.00
38303;BME280;24103;42.454;27.400;2023-11-22T15:01:31;100420.59;;;13.58;100.00
38303;BME280;24103;42.454;27.400;2023-11-22T15:03:58;100426.75;;;13.82;100.00
38303;BME280;24103;42.454;27.400;2023-11-22T15:06:23;100427.47;;;14.09;100.00
38303;BME280;24103;42.454;27.400;2023-11-22T15:08:49;100440.94;;;13.70;100.00
38303;BME280;24103;42.454;27.400;2023-11-22T15:11:16;100450.06;;;14.03;100.00
38303;BME280;24103;42.454;27.400;2023-11-22T15:13:43;100457.38;;;14.24;100.00
38303;BME280;24103;42.454;27.400;2023-11-22T15:16:09;100477.66;;;13.89;100.00
38303;BME280;24103;42.454;27.400;2023-11-22T15:18:38;100499.03;;;13.75;100.00
38303;BME280;24103;42.454;27.400;2023-11-22T15:21:05;100501.00;;;13.34;100.00
38303;BME280;24103;42.454;27.400;2023-11-22T15:23:30;100494.09;;;13.19;100.00
38303;BME280;24103;42.454;27.400;2023-11-22T15:25:56;100489.63;;;13.19;100.00
38303;BME280;24103;42.454;27.400;2023-11-22T15:28:24;100496.63;;;13.46;100.00
38303;BME280;24103;42.454;27.400;2023-11-22T15:30:50;100488.03;;;13.42;100.00
38303;BME280;24103;42.454;27.400;2023-11-22T15:33:22;100499.94;;;13.50;100.00
38303;BME280;24103;42.454;27.400;2023-11-22T15:35:47;100511.81;;;13.31;100.00
38303;BME280;24103;42.454;27.400;2023-11-22T15:38:13;100527.66;;;13.33;100.00
38303;BME280;24103;42.454;27.400;2023-11-22T15:40:39;100538.13;;;13.21;100.00
38303;BME280;24103;42.454;27.400;2023-11-22T15:43:04;100537.63;;;13.03;100.00
38303;BME280;24103;42.454;27.400;2023-11-22T15:45:31;100545.44;;;13.18;100.00
38303;BME280;24103;42.454;27.400;2023-11-22T15:47:57;100553.56;;;13.42;100.00
38303;BME280;24103;42.454;27.400;2023-11-22T15:50:23;100561.78;;;13.24;100.00
38303;BME280;24103;42.454;27.400;2023-11-22T15:52:48;100561.00;;;13.37;100.00
38303;BME280;24103;42.454;27.400;2023-11-22T15:55:14;100564.25;;;14.16;100.00
38303;BME280;24103;42.454;27.400;2023-11-22T15:57:39;100570.66;;;14.86;100.00
38303;BME280;24103;42.454;27.400;2023-11-22T16:00:05;100580.97;;;15.02;100.00
38303;BME280;24103;42.454;27.400;2023-11-22T16:02:35;100591.75;;;14.52;100.00
38303;BME280;24103;42.454;27.400;2023-11-22T16:05:01;100594.47;;;14.02;100.00
38303;BME280;24103;42.454;27.400;2023-11-22T16:07:26;100592.50;;;14.17;100.00
38303;BME280;24103;42.454;27.400;2023-11-22T16:09:52;100590.78;;;13.92;100.00
38303;BME280;24103;42.454;27.400;2023-11-22T16:12:18;100592.19;;;13.72;100.00
38303;BME280;24103;42.454;27.400;2023-11-22T16:14:47;100601.31;;;13.80;100.00
38303;BME280;24103;42.454;27.400;2023-11-22T16:17:14;100604.13;;;13.13;100.00
38303;BME280;24103;42.454;27.400;2023-11-22T16:19:40;100592.88;;;13.09;100.00
38303;BME280;24103;42.454;27.400;2023-11-22T16:22:06;100609.81;;;13.47;100.00
38303;BME280;24103;42.454;27.400;2023-11-22T16:24:32;100617.72;;;12.41;100.00
38303;BME280;24103;42.454;27.400;2023-11-22T16:26:57;100615.03;;;13.49;100.00
38303;BME280;24103;42.454;27.400;2023-11-22T16:29:25;100623.78;;;13.11;100.00
38303;BME280;24103;42.454;27.400;2023-11-22T16:31:50;100629.44;;;12.79;100.00
38303;BME280;24103;42.454;27.400;2023-11-22T16:34:16;100613.09;;;12.85;100.00
38303;BME280;24103;42.454;27.400;2023-11-22T16:36:41;100624.16;;;12.64;100.00
38303;BME280;24103;42.454;27.400;2023-11-22T16:39:07;100631.28;;;12.22;100.00
38303;BME280;24103;42.454;27.400;2023-11-22T16:41:34;100629.19;;;12.27;100.00
38303;BME280;24103;42.454;27.400;2023-11-22T16:43:59;100636.25;;;12.41;100.00
38303;BME280;24103;42.454;27.400;2023-11-22T16:46:26;100632.41;;;12.60;100.00
38303;BME280;24103;42.454;27.400;2023-11-22T16:48:53;100636.25;;;12.96;100.00
38303;BME280;24103;42.454;27.400;2023-11-22T16:51:20;100646.50;;;12.60;100.00
38303;BME280;24103;42.454;27.400;2023-11-22T16:53:46;100647.31;;;12.48;100.00
38303;BME280;24103;42.454;27.400;2023-11-22T16:56:11;100657.00;;;12.20;100.00
38303;BME280;24103;42.454;27.400;2023-11-22T16:58:37;100658.88;;;12.74;100.00
38303;BME280;24103;42.454;27.400;2023-11-22T17:01:04;100658.50;;;12.80;100.00
38303;BME280;24103;42.454;27.400;2023-11-22T17:03:30;100670.88;;;12.80;100.00
38303;BME280;24103;42.454;27.400;2023-11-22T17:05:55;100666.63;;;12.35;100.00
38303;BME280;24103;42.454;27.400;2023-11-22T17:08:21;100676.19;;;12.52;100.00
38303;BME280;24103;42.454;27.400;2023-11-22T17:10:47;100676.75;;;12.43;100.00
38303;BME280;24103;42.454;27.400;2023-11-22T17:13:13;100682.75;;;12.04;100.00
38303;BME280;24103;42.454;27.400;2023-11-22T17:15:38;100677.28;;;12.21;100.00
38303;BME280;24103;42.454;27.400;2023-11-22T17:18:05;100672.03;;;11.91;100.00
38303;BME280;24103;42.454;27.400;2023-11-22T17:20:30;100674.03;;;12.30;100.00
38303;BME280;24103;42.454;27.400;2023-11-22T17:22:56;100687.28;;;12.30;100.00
38303;BME280;24103;42.454;27.400;2023-11-22T17:25:21;100684.16;;;12.24;100.00
38303;BME280;24103;42.454;27.400;2023-11-22T17:27:47;100697.59;;;11.92;100.00
38303;BME280;24103;42.454;27.400;2023-11-22T17:30:12;100702.22;;;12.03;100.00
38303;BME280;24103;42.454;27.400;2023-11-22T17:32:38;100707.03;;;11.82;100.00
38303;BME280;24103;42.454;27.400;2023-11-22T17:35:04;100707.06;;;12.10;100.00
38303;BME280;24103;42.454;27.400;2023-11-22T17:37:30;100710.66;;;12.24;100.00
38303;BME280;24103;42.454;27.400;2023-11-22T17:39:55;100716.13;;;12.21;100.00
38303;BME280;24103;42.454;27.400;2023-11-22T17:42:22;100726.25;;;12.28;100.00
38303;BME280;24103;42.454;27.400;2023-11-22T17:44:50;100737.31;;;12.49;100.00
38303;BME280;24103;42.454;27.400;2023-11-22T17:47:19;100741.69;;;12.36;100.00
38303;BME280;24103;42.454;27.400;2023-11-22T17:49:48;100759.19;;;12.53;100.00
38303;BME280;24103;42.454;27.400;2023-11-22T17:52:16;100771.59;;;12.52;100.00
38303;BME280;24103;42.454;27.400;2023-11-22T17:54:42;100778.66;;;12.09;100.00
38303;BME280;24103;42.454;27.400;2023-11-22T17:57:09;100770.09;;;12.20;100.00
38303;BME280;24103;42.454;27.400;2023-11-22T17:59:36;100775.56;;;12.16;100.00
38303;BME280;24103;42.454;27.400;2023-11-22T18:02:01;100780.25;;;11.97;100.00
38303;BME280;24103;42.454;27.400;2023-11-22T18:04:27;100786.72;;;12.22;100.00
38303;BME280;24103;42.454;27.400;2023-11-22T18:06:53;100793.16;;;11.87;100.00
38303;BME280;24103;42.454;27.400;2023-11-22T18:09:22;100801.78;;;11.91;100.00
38303;BME280;24103;42.454;27.400;2023-11-22T18:11:47;100791.44;;;11.72;100.00
38303;BME280;24103;42.454;27.400;2023-11-22T18:14:13;100800.44;;;12.00;100.00
38303;BME280;24103;42.454;27.400;2023-11-22T18:16:38;100816.41;;;12.12;100.00
38303;BME280;24103;42.454;27.400;2023-11-22T18:19:07;100825.03;;;11.86;100.00
38303;BME280;24103;42.454;27.400;2023-11-22T18:21:32;100820.88;;;11.82;100.00
38303;BME280;24103;42.454;27.400;2023-11-22T18:23:59;100813.97;;;11.63;100.00
38303;BME280;24103;42.454;27.400;2023-11-22T18:26:24;100818.25;;;11.66;100.00
38303;BME280;24103;42.454;27.400;2023-11-22T18:28:50;100818.03;;;11.85;100.00
38303;BME280;24103;42.454;27.400;2023-11-22T18:31:15;100822.47;;;11.84;100.00
38303;BME280;24103;42.454;27.400;2023-11-22T18:33:41;100822.16;;;11.28;100.00
38303;BME280;24103;42.454;27.400;2023-11-22T18:36:07;100823.88;;;11.29;100.00
38303;BME280;24103;42.454;27.400;2023-11-22T18:38:33;100830.41;;;11.38;100.00
38303;BME280;24103;42.454;27.400;2023-11-22T18:40:59;100836.59;;;11.38;100.00
38303;BME280;24103;42.454;27.400;2023-11-22T18:43:26;100837.00;;;11.15;100.00
38303;BME280;24103;42.454;27.400;2023-11-22T18:45:52;100843.50;;;11.71;100.00
38303;BME280;24103;42.454;27.400;2023-11-22T18:48:17;100849.28;;;11.94;100.00
38303;BME280;24103;42.454;27.400;2023-11-22T18:50:43;100842.88;;;11.36;100.00
38303;BME280;24103;42.454;27.400;2023-11-22T18:53:08;100852.84;;;11.62;100.00
38303;BME280;24103;42.454;27.400;2023-11-22T18:55:33;100864.22;;;11.49;100.00
38303;BME280;24103;42.454;27.400;2023-11-22T18:57:59;100859.09;;;11.30;100.00
38303;BME280;24103;42.454;27.400;2023-11-22T19:00:24;100859.94;;;11.46;100.00
38303;BME280;24103;42.454;27.400;2023-11-22T19:06:12;100860.78;;;12.09;100.00
38303;BME280;24103;42.454;27.400;2023-11-22T19:08:37;100859.78;;;12.40;100.00
38303;BME280;24103;42.454;27.400;2023-11-22T19:11:07;100871.91;;;12.59;100.00
38303;BME280;24103;42.454;27.400;2023-11-22T19:13:36;100881.53;;;12.16;100.00
38303;BME280;24103;42.454;27.400;2023-11-22T19:16:01;100873.41;;;12.20;100.00
38303;BME280;24103;42.454;27.400;2023-11-22T19:18:27;100889.13;;;12.23;100.00
38303;BME280;24103;42.454;27.400;2023-11-22T19:20:53;100888.03;;;12.56;100.00
38303;BME280;24103;42.454;27.400;2023-11-22T19:23:21;100882.25;;;12.49;100.00
38303;BME280;24103;42.454;27.400;2023-11-22T19:25:46;100887.56;;;12.49;100.00
38303;BME280;24103;42.454;27.400;2023-11-22T19:28:12;100884.34;;;12.72;100.00
38303;BME280;24103;42.454;27.400;2023-11-22T19:30:38;100888.88;;;12.56;100.00
38303;BME280;24103;42.454;27.400;2023-11-22T19:33:03;100906.13;;;12.19;100.00
38303;BME280;24103;42.454;27.400;2023-11-22T19:35:29;100905.00;;;12.67;100.00
38303;BME280;24103;42.454;27.400;2023-11-22T19:37:57;100910.69;;;12.76;100.00
38303;BME280;24103;42.454;27.400;2023-11-22T19:40:23;100918.22;;;12.82;100.00
38303;BME280;24103;42.454;27.400;2023-11-22T19:42:52;100929.13;;;12.63;100.00
38303;BME280;24103;42.454;27.400;2023-11-22T19:45:18;100924.44;;;12.52;100.00
38303;BME280;24103;42.454;27.400;2023-11-22T19:47:44;100929.13;;;12.63;100.00
38303;BME280;24103;42.454;27.400;2023-11-22T19:50:09;100926.44;;;12.48;100.00
38303;BME280;24103;42.454;27.400;2023-11-22T19:52:36;100923.47;;;12.24;100.00
38303;BME280;24103;42.454;27.400;2023-11-22T19:55:02;100925.72;;;12.30;100.00
38303;BME280;24103;42.454;27.400;2023-11-22T19:57:31;100928.19;;;12.33;100.00
38303;BME280;24103;42.454;27.400;2023-11-22T19:59:57;100927.72;;;11.96;100.00
38303;BME280;24103;42.454;27.400;2023-11-22T20:02:23;100936.75;;;11.92;100.00
38303;BME280;24103;42.454;27.400;2023-11-22T20:04:48;100933.09;;;11.15;100.00
38303;BME280;24103;42.454;27.400;2023-11-22T20:07:13;100941.34;;;11.09;100.00
38303;BME280;24103;42.454;27.400;2023-11-22T20:09:39;100938.56;;;11.60;100.00
38303;BME280;24103;42.454;27.400;2023-11-22T20:12:05;100956.22;;;11.28;100.00
38303;BME280;24103;42.454;27.400;2023-11-22T20:14:31;100959.97;;;11.71;100.00
38303;BME280;24103;42.454;27.400;2023-11-22T20:16:56;100964.00;;;11.47;100.00
38303;BME280;24103;42.454;27.400;2023-11-22T20:19:21;100952.38;;;11.49;100.00
38303;BME280;24103;42.454;27.400;2023-11-22T20:21:47;100956.56;;;11.37;100.00
38303;BME280;24103;42.454;27.400;2023-11-22T20:24:12;100959.22;;;11.37;100.00
38303;BME280;24103;42.454;27.400;2023-11-22T20:26:42;100952.63;;;11.44;100.00
38303;BME280;24103;42.454;27.400;2023-11-22T20:29:07;100959.38;;;11.34;100.00
38303;BME280;24103;42.454;27.400;2023-11-22T20:31:33;100965.47;;;11.52;100.00
38303;BME280;24103;42.454;27.400;2023-11-22T20:33:59;100973.00;;;11.92;100.00
38303;BME280;24103;42.454;27.400;2023-11-22T20:36:25;100980.69;;;11.96;100.00
38303;BME280;24103;42.454;27.400;2023-11-22T20:38:50;100987.59;;;11.83;100.00
38303;BME280;24103;42.454;27.400;2023-11-22T20:41:22;100968.09;;;11.52;100.00
38303;BME280;24103;42.454;27.400;2023-11-22T20:43:50;100983.03;;;11.69;100.00
38303;BME280;24103;42.454;27.400;2023-11-22T20:46:16;100985.28;;;11.77;100.00
38303;BME280;24103;42.454;27.400;2023-11-22T20:48:41;100981.31;;;11.03;100.00
38303;BME280;24103;42.454;27.400;2023-11-22T20:51:07;100988.75;;;11.46;100.00
38303;BME280;24103;42.454;27.400;2023-11-22T20:53:33;100988.16;;;11.56;100.00
38303;BME280;24103;42.454;27.400;2023-11-22T20:55:58;100993.63;;;11.69;100.00
38303;BME280;24103;42.454;27.400;2023-11-22T20:58:24;100993.03;;;11.64;100.00
38303;BME280;24103;42.454;27.400;2023-11-22T21:00:50;100993.94;;;11.31;100.00
38303;BME280;24103;42.454;27.400;2023-11-22T21:03:16;100992.13;;;11.32;100.00
38303;BME280;24103;42.454;27.400;2023-11-22T21:05:41;101011.59;;;11.31;100.00
38303;BME280;24103;42.454;27.400;2023-11-22T21:08:07;101011.63;;;11.62;100.00
38303;BME280;24103;42.454;27.400;2023-11-22T21:10:32;101019.38;;;10.83;100.00
38303;BME280;24103;42.454;27.400;2023-11-22T21:12:58;101017.59;;;11.01;100.00
38303;BME280;24103;42.454;27.400;2023-11-22T21:15:23;101028.97;;;10.68;100.00
38303;BME280;24103;42.454;27.400;2023-11-22T21:17:49;101022.25;;;10.96;100.00
38303;BME280;24103;42.454;27.400;2023-11-22T21:20:15;101020.53;;;11.12;100.00
38303;BME280;24103;42.454;27.400;2023-11-22T21:22:41;101027.31;;;11.50;100.00
38303;BME280;24103;42.454;27.400;2023-11-22T21:25:07;101030.75;;;11.18;100.00
38303;BME280;24103;42.454;27.400;2023-11-22T21:27:36;101027.25;;;11.35;100.00
38303;BME280;24103;42.454;27.400;2023-11-22T21:30:01;101039.81;;;11.14;100.00
38303;BME280;24103;42.454;27.400;2023-11-22T21:32:27;101038.53;;;11.21;100.00
38303;BME280;24103;42.454;27.400;2023-11-22T21:34:52;101050.03;;;10.69;100.00
38303;BME280;24103;42.454;27.400;2023-11-22T21:37:18;101055.69;;;10.44;100.00
38303;BME280;24103;42.454;27.400;2023-11-22T21:39:44;101054.22;;;10.91;100.00
38303;BME280;24103;42.454;27.400;2023-11-22T21:42:09;101052.09;;;10.80;100.00
38303;BME280;24103;42.454;27.400;2023-11-22T21:44:40;101051.50;;;10.93;100.00
38303;BME280;24103;42.454;27.400;2023-11-22T21:47:05;101058.31;;;11.14;100.00
38303;BME280;24103;42.454;27.400;2023-11-22T21:49:31;101053.56;;;11.03;100.00
38303;BME280;24103;42.454;27.400;2023-11-22T21:51:56;101067.50;;;10.90;100.00
38303;BME280;24103;42.454;27.400;2023-11-22T21:54:22;101058.47;;;11.11;100.00
38303;BME280;24103;42.454;27.400;2023-11-22T21:56:47;101063.16;;;10.88;100.00
38303;BME280;24103;42.454;27.400;2023-11-22T21:59:13;101067.97;;;10.98;100.00
38303;BME280;24103;42.454;27.400;2023-11-22T22:01:39;101071.16;;;11.04;100.00
38303;BME280;24103;42.454;27.400;2023-11-22T22:04:05;101061.44;;;11.05;100.00
38303;BME280;24103;42.454;27.400;2023-11-22T22:06:32;101061.19;;;11.10;100.00
38303;BME280;24103;42.454;27.400;2023-11-22T22:08:58;101074.13;;;11.32;100.00
38303;BME280;24103;42.454;27.400;2023-11-22T22:11:23;101079.78;;;11.25;100.00
38303;BME280;24103;42.454;27.400;2023-11-22T22:13:49;101074.81;;;11.19;100.00
38303;BME280;24103;42.454;27.400;2023-11-22T22:16:14;101080.50;;;10.94;100.00
38303;BME280;24103;42.454;27.400;2023-11-22T22:18:40;101082.00;;;10.82;100.00
38303;BME280;24103;42.454;27.400;2023-11-22T22:21:05;101065.56;;;11.11;100.00
38303;BME280;24103;42.454;27.400;2023-11-22T22:23:32;101076.34;;;11.23;100.00
38303;BME280;24103;42.454;27.400;2023-11-22T22:26:00;101070.88;;;11.27;100.00
38303;BME280;24103;42.454;27.400;2023-11-22T22:28:26;101076.25;;;11.25;100.00
38303;BME280;24103;42.454;27.400;2023-11-22T22:30:55;101064.34;;;11.34;100.00
38303;BME280;24103;42.454;27.400;2023-11-22T22:33:21;101085.84;;;10.75;100.00
38303;BME280;24103;42.454;27.400;2023-11-22T22:35:46;101081.25;;;10.79;100.00
38303;BME280;24103;42.454;27.400;2023-11-22T22:38:12;101086.94;;;10.88;100.00
38303;BME280;24103;42.454;27.400;2023-11-22T22:40:37;101092.69;;;10.97;100.00
38303;BME280;24103;42.454;27.400;2023-11-22T22:43:03;101099.00;;;10.59;100.00
38303;BME280;24103;42.454;27.400;2023-11-22T22:45:30;101093.25;;;10.86;100.00
38303;BME280;24103;42.454;27.400;2023-11-22T22:47:55;101085.78;;;10.59;100.00
38303;BME280;24103;42.454;27.400;2023-11-22T22:50:20;101094.31;;;10.82;100.00
38303;BME280;24103;42.454;27.400;2023-11-22T22:52:47;101107.88;;;11.11;100.00
38303;BME280;24103;42.454;27.400;2023-11-22T22:55:12;101096.78;;;10.50;100.00
38303;BME280;24103;42.454;27.400;2023-11-22T22:57:39;101099.25;;;10.17;100.00
38303;BME280;24103;42.454;27.400;2023-11-22T23:00:06;101111.59;;;10.35;100.00
38303;BME280;24103;42.454;27.400;2023-11-22T23:02:37;101122.28;;;10.51;100.00
38303;BME280;24103;42.454;27.400;2023-11-22T23:05:03;101122.56;;;10.45;100.00
38303;BME280;24103;42.454;27.400;2023-11-22T23:07:30;101115.41;;;10.83;100.00
38303;BME280;24103;42.454;27.400;2023-11-22T23:09:55;101114.94;;;10.75;100.00
38303;BME280;24103;42.454;27.400;2023-11-22T23:12:21;101126.13;;;10.63;100.00
38303;BME280;24103;42.454;27.400;2023-11-22T23:14:47;101120.00;;;10.80;100.00
38303;BME280;24103;42.454;27.400;2023-11-22T23:17:13;101133.22;;;10.43;100.00
38303;BME280;24103;42.454;27.400;2023-11-22T23:19:38;101121.56;;;10.09;100.00
38303;BME280;24103;42.454;27.400;2023-11-22T23:22:04;101137.75;;;10.21;100.00
38303;BME280;24103;42.454;27.400;2023-11-22T23:24:32;101142.69;;;10.47;100.00
38303;BME280;24103;42.454;27.400;2023-11-22T23:26:58;101140.50;;;10.38;100.00
38303;BME280;24103;42.454;27.400;2023-11-22T23:29:23;101138.59;;;10.21;100.00
38303;BME280;24103;42.454;27.400;2023-11-22T23:31:50;101151.97;;;9.99;100.00
38303;BME280;24103;42.454;27.400;2023-11-22T23:34:15;101159.66;;;10.23;100.00
38303;BME280;24103;42.454;27.400;2023-11-22T23:36:41;101153.25;;;10.28;100.00
38303;BME280;24103;42.454;27.400;2023-11-22T23:39:07;101161.91;;;10.32;100.00
38303;BME280;24103;42.454;27.400;2023-11-22T23:41:34;101170.16;;;10.24;100.00
38303;BME280;24103;42.454;27.400;2023-11-22T23:44:00;101178.09;;;10.24;100.00
38303;BME280;24103;42.454;27.400;2023-11-22T23:46:26;101177.22;;;10.24;100.00
38303;BME280;24103;42.454;27.400;2023-11-22T23:48:54;101166.94;;;10.18;100.00
38303;BME280;24103;42.454;27.400;2023-11-22T23:51:20;101167.13;;;10.33;100.00
38303;BME280;24103;42.454;27.400;2023-11-22T23:53:45;101153.81;;;10.16;100.00
38303;BME280;24103;42.454;27.400;2023-11-22T23:56:11;101161.22;;;10.08;100.00
38303;BME280;24103;42.454;27.400;2023-11-22T23:58:36;101163.66;;;10.12;100.00
